Startpagina
METAR-TAF:

METAR-TAF

Vliegvelden :

Aéroport de Luxembourg

Luxemburg, Luxemburg

breedte: 49-37N, lengte: 006-13E, hoogte: 376 m

Actueel weer

Dit bericht is 43 minuten geleden gemaakt, om 09:20 UTC
Wind 7 kt uit het oostnoordoosten, variërend tussen het noorden en het oostzuidoosten
Temperatuur 16°C
Vochtigheid 63%
Druk 1019 hPa
Zicht 10 km of meer
Gebroken wolken op 2500 ft

METAR: ELLX 160920Z 06007KT 010V110 9999 BKN025 16/09 Q1019 NOSIG

Tijdstip: 12:03 (10:03 UTC)

Verwachting

Dit bericht is 5 uur en het 3 minuten geleden gemaakt, om 05:00 UTC
Verwachting geldig van 16 om 06 UTC tot 17 om 12 UTC
Wind 8 kt uit het noordoosten
Zicht 10 km of meer
geen wolken onder 1500 m en geen cumulonimbus
Tijdelijke
van 16 om 11 UTC tot 16 om 20 UTC
Wind 3 kt uit variabele richting

TAF: ELLX 160500Z 1606/1712 04008KT CAVOK TEMPO 1611/1620 VRB03KT

Waarnemingen en weersverwachtingen van meer dan 4000 vliegvelden (METAR en TAF).

De beschikbare stations zijn de gele en rode punten op de kaart.

Ga met uw muis naar het station om de naam te zien.

Klik dan om waarnemingen en weersverwachtingen te zien.

kaart wijzigen: klik op de groene knoppen met een zwart kruis om in te zoomen, op de groene knop met een streepje om uit te zoomen of op de groene pijlen voor aangrenzende kaarten.


METAR-TAF: